createdAt,value
2023-01-13T01:06:28.545Z,-5.54
2023-01-13T01:09:16.351Z,-5.43
2023-01-13T01:12:04.125Z,-5.36
2023-01-13T01:14:51.571Z,-5.31
2023-01-13T01:17:39.037Z,-5.22
2023-01-13T01:20:26.611Z,-5.13
2023-01-13T01:23:14.080Z,-5.06
2023-01-13T01:26:02.532Z,-5.01
2023-01-13T01:28:50.116Z,-4.97
2023-01-13T01:31:37.659Z,-4.94
2023-01-13T01:34:25.112Z,-4.93
2023-01-13T01:37:12.573Z,-4.84
2023-01-13T01:40:00.037Z,-4.81
2023-01-13T01:43:06.171Z,-4.73
2023-01-13T01:45:53.649Z,-4.69
2023-01-13T01:48:41.351Z,-4.68
2023-01-13T01:51:29.908Z,-4.70
2023-01-13T01:54:27.752Z,-4.70
2023-01-13T01:57:18.487Z,-4.69
2023-01-13T02:00:06.547Z,-4.69
2023-01-13T02:02:59.299Z,-4.68
2023-01-13T02:05:46.765Z,-4.70
2023-01-13T02:08:34.922Z,-4.66
2023-01-13T02:11:49.270Z,-4.62
2023-01-13T02:14:36.737Z,-4.60
2023-01-13T02:18:12.405Z,-4.58
2023-01-13T02:21:15.125Z,-4.53
2023-01-13T02:24:33.627Z,-4.56
2023-01-13T02:27:53.001Z,-4.59
2023-01-13T02:31:15.427Z,-4.67
2023-01-13T02:34:09.513Z,-4.65
2023-01-13T02:37:00.037Z,-4.65
2023-01-13T02:40:01.791Z,-4.60
2023-01-13T02:43:30.892Z,-4.59
2023-01-13T02:46:23.408Z,-4.56
2023-01-13T02:49:12.607Z,-4.56
2023-01-13T02:52:10.424Z,-4.56
2023-01-13T02:55:01.670Z,-4.60
2023-01-13T02:57:49.174Z,-4.60
2023-01-13T03:00:36.892Z,-4.58
2023-01-13T03:03:24.665Z,-4.57
2023-01-13T03:06:30.760Z,-4.58
2023-01-13T03:09:40.050Z,-4.53
2023-01-13T03:12:58.661Z,-4.49
2023-01-13T03:15:49.118Z,-4.48
2023-01-13T03:18:46.935Z,-4.49
2023-01-13T03:21:37.452Z,-4.50
2023-01-13T03:24:39.929Z,-4.50
2023-01-13T03:27:30.584Z,-4.53
2023-01-13T03:30:29.387Z,-4.55
2023-01-13T03:33:18.253Z,-4.58
2023-01-13T03:36:08.327Z,-4.57
2023-01-13T03:39:05.380Z,-4.56
2023-01-13T03:41:57.264Z,-4.55
2023-01-13T03:44:52.502Z,-4.52
2023-01-13T03:47:41.469Z,-4.51
2023-01-13T03:50:31.627Z,-4.48
2023-01-13T03:53:22.226Z,-4.43
2023-01-13T03:56:39.877Z,-4.45
2023-01-13T07:10:14.440Z,-5.70
2023-01-13T07:13:20.910Z,-5.50
2023-01-13T07:16:09.002Z,-5.41
2023-01-13T07:18:56.456Z,-5.32
2023-01-13T07:21:43.999Z,-5.25
2023-01-13T07:24:31.469Z,-5.17
2023-01-13T07:27:18.971Z,-5.12
2023-01-13T07:30:07.579Z,-5.08
2023-01-13T07:32:55.503Z,-5.02
2023-01-13T07:35:42.999Z,-4.96
2023-01-13T07:38:30.648Z,-4.89
2023-01-13T07:41:36.631Z,-4.86
2023-01-13T07:44:24.046Z,-4.83
2023-01-13T07:47:11.543Z,-4.78
2023-01-13T07:49:59.029Z,-4.75
2023-01-13T07:52:46.515Z,-4.61
2023-01-13T07:55:34.032Z,-4.54
2023-01-13T07:58:21.442Z,-4.42
2023-01-13T08:01:10.489Z,-4.36
2023-01-13T08:03:58.938Z,-4.30
2023-01-13T08:06:46.607Z,-4.27
2023-01-13T08:09:34.175Z,-4.28
2023-01-13T08:12:40.277Z,-4.28
2023-01-13T08:15:40.692Z,-4.22
2023-01-13T08:18:28.159Z,-4.18
2023-01-13T08:21:15.731Z,-4.14
2023-01-13T08:24:03.170Z,-4.07
2023-01-13T08:26:50.546Z,-4.05
2023-01-13T08:29:38.009Z,-4.02
2023-01-13T08:32:25.413Z,-3.99
2023-01-13T08:35:13.302Z,-3.99
2023-01-13T08:38:00.739Z,-4.01
2023-01-13T08:40:48.156Z,-4.00
2023-01-13T08:43:35.647Z,-3.96
2023-01-13T08:46:23.127Z,-3.92
2023-01-13T08:49:10.583Z,-3.90
2023-01-13T08:51:58.062Z,-3.86
2023-01-13T08:54:45.600Z,-3.75
2023-01-13T08:57:33.171Z,-3.68
2023-01-13T09:00:20.900Z,-3.66
2023-01-13T09:03:08.408Z,-3.62
2023-01-13T09:05:55.853Z,-3.56
2023-01-13T09:08:43.470Z,-3.50
2023-01-13T09:11:53.289Z,-3.43
2023-01-13T09:14:40.991Z,-3.33
2023-01-13T09:17:28.472Z,-3.29
2023-01-13T09:20:16.178Z,-3.26
2023-01-13T09:23:04.226Z,-3.23
2023-01-13T09:25:52.697Z,-3.15
2023-01-13T09:28:40.158Z,-3.09
2023-01-13T09:31:28.689Z,-3.04
2023-01-13T09:34:36.767Z,-3.04
2023-01-13T09:37:24.199Z,-3.00
2023-01-13T09:40:22.720Z,-2.91
2023-01-13T09:43:48.929Z,-2.83
2023-01-13T09:46:47.280Z,-2.87
2023-01-13T09:49:37.519Z,-2.86
2023-01-13T09:52:27.020Z,-2.84
2023-01-13T09:55:17.078Z,-2.79
2023-01-13T09:58:13.191Z,-2.76
2023-01-13T13:07:30.961Z,-3.22
2023-01-13T13:10:24.311Z,-3.19
2023-01-13T13:13:42.659Z,-3.09
2023-01-13T13:16:30.358Z,-2.98
2023-01-13T13:19:18.004Z,-2.86
2023-01-13T13:22:16.756Z,-2.82
2023-01-13T13:25:04.202Z,-2.76
2023-01-13T13:28:01.724Z,-2.69
2023-01-13T13:30:53.814Z,-2.68
2023-01-13T13:33:50.454Z,-2.68
2023-01-13T13:36:46.776Z,-2.72
2023-01-13T13:39:52.718Z,-2.77
2023-01-13T13:43:03.339Z,-2.81
2023-01-13T13:46:10.059Z,-2.83
2023-01-13T13:48:58.605Z,-2.82
2023-01-13T13:51:52.936Z,-2.83
2023-01-13T13:54:42.229Z,-2.82
2023-01-13T13:57:39.971Z,-2.81
2023-01-13T14:00:32.460Z,-2.83
2023-01-13T14:03:37.857Z,-2.87
2023-01-13T14:06:27.237Z,-2.91
2023-01-13T14:09:18.119Z,-2.95
2023-01-13T14:12:08.902Z,-2.99
2023-01-13T14:14:57.552Z,-3.00
2023-01-13T14:17:44.971Z,-3.04
2023-01-13T14:20:34.487Z,-3.01
2023-01-13T14:23:26.239Z,-3.04
2023-01-13T14:26:15.017Z,-3.07
2023-01-13T14:29:02.602Z,-3.10
2023-01-13T14:31:50.577Z,-3.12
2023-01-13T14:34:38.036Z,-3.15
2023-01-13T14:37:25.453Z,-3.16
2023-01-13T14:40:39.483Z,-3.20
2023-01-13T14:43:27.447Z,-3.23
2023-01-13T14:46:15.218Z,-3.24
2023-01-13T14:49:02.888Z,-3.25
2023-01-13T14:51:50.867Z,-3.32
2023-01-13T14:54:41.388Z,-3.37
2023-01-13T14:57:32.730Z,-3.44
2023-01-13T15:00:24.899Z,-3.51
2023-01-13T15:03:16.517Z,-3.56
2023-01-13T15:06:22.990Z,-3.59
2023-01-13T15:09:13.590Z,-3.63
2023-01-13T15:12:12.183Z,-3.69
2023-01-13T15:14:59.611Z,-3.72
2023-01-13T15:17:47.313Z,-3.76
2023-01-13T15:20:34.737Z,-3.81
2023-01-13T15:23:22.317Z,-3.86
2023-01-13T15:26:27.215Z,-3.96
2023-01-13T15:29:17.503Z,-4.01
2023-01-13T15:32:05.306Z,-4.02
2023-01-13T15:34:53.679Z,-4.04
2023-01-13T15:37:41.742Z,-4.09
2023-01-13T15:40:32.750Z,-4.10
2023-01-13T15:43:40.382Z,-4.08
2023-01-13T15:46:40.061Z,-4.15
2023-01-13T15:49:37.037Z,-4.22
2023-01-13T15:52:25.828Z,-4.31
2023-01-13T15:55:13.320Z,-4.37
2023-01-13T15:58:02.008Z,-4.41
2023-01-13T19:07:36.664Z,-4.13
2023-01-13T19:10:24.220Z,-4.03
2023-01-13T19:13:11.840Z,-3.96
2023-01-13T19:16:04.661Z,-3.80
2023-01-13T19:18:52.264Z,-3.71
2023-01-13T19:21:39.778Z,-3.66
2023-01-13T19:24:27.266Z,-3.60
2023-01-13T19:27:15.482Z,-3.55
2023-01-13T19:30:03.629Z,-3.51
2023-01-13T19:32:51.859Z,-3.44
2023-01-13T19:35:39.346Z,-3.40
2023-01-13T19:38:27.469Z,-3.35
2023-01-13T19:41:34.900Z,-3.32
2023-01-13T19:44:41.024Z,-3.27
2023-01-13T19:47:28.734Z,-3.20
2023-01-13T19:50:16.253Z,-3.17
2023-01-13T19:53:03.762Z,-3.16
2023-01-13T19:55:51.306Z,-3.13
2023-01-13T19:58:38.705Z,-3.12
2023-01-13T20:01:31.839Z,-3.12
2023-01-13T20:04:27.144Z,-3.12
2023-01-13T20:07:14.721Z,-3.09
2023-01-13T20:10:02.535Z,-3.06
2023-01-13T20:12:50.096Z,-3.05
2023-01-13T20:15:38.462Z,-3.01
2023-01-13T20:18:25.888Z,-3.00
2023-01-13T20:21:13.263Z,-2.98
2023-01-13T20:24:00.772Z,-2.93
2023-01-13T20:26:48.330Z,-2.91
2023-01-13T20:29:35.920Z,-2.92
2023-01-13T20:32:23.785Z,-2.92
2023-01-13T20:35:12.610Z,-2.94
2023-01-13T20:38:00.039Z,-2.95
2023-01-13T20:40:47.559Z,-2.93
2023-01-13T20:43:35.091Z,-2.91
2023-01-13T20:46:23.063Z,-2.92
2023-01-13T20:49:10.817Z,-2.93
2023-01-13T20:51:58.714Z,-2.92
2023-01-13T20:54:46.222Z,-2.92
2023-01-13T20:57:33.866Z,-2.92
2023-01-13T21:00:21.620Z,-2.94
2023-01-13T21:03:09.096Z,-2.96
2023-01-13T21:05:59.587Z,-2.92
2023-01-13T21:08:47.598Z,-2.87
2023-01-13T21:11:53.583Z,-2.86
2023-01-13T21:14:59.788Z,-2.87
2023-01-13T21:18:06.985Z,-2.83
2023-01-13T21:21:11.396Z,-2.78
2023-01-13T21:23:58.864Z,-2.80
2023-01-13T21:26:49.285Z,-2.83
2023-01-13T21:29:36.781Z,-2.82
2023-01-13T21:32:24.228Z,-2.79
2023-01-13T21:35:12.126Z,-2.75
2023-01-13T21:37:59.779Z,-2.75
2023-01-13T21:40:56.365Z,-2.78
2023-01-13T21:44:02.427Z,-2.79
2023-01-13T21:47:08.370Z,-2.79
2023-01-13T21:49:55.775Z,-2.82
2023-01-13T21:52:43.213Z,-2.84
2023-01-13T21:55:31.334Z,-2.86
